Time;durP1;ratioP1;P1;durP2;ratioP2;P2;SDS_P1;SDS_P2;PMS_P1;PMS_P2;Temp;Humidity;BMP_temperature;BMP_pressure;BME280_temperature;BME280_humidity;BME280_pressure;Samples;Min_cycle;Max_cycle;Signal;HPM_P1;HPM_P2
2021/08/08 00:01:07;;;;;;;2.80;1.87;;;;;;;12.94;80.27;95565.50;1770253;81;21474;-58
2021/08/08 00:03:34;;;;;;;2.02;1.80;;;;;;;12.95;80.27;95560.64;1770592;81;20966;-58
2021/08/08 00:06:00;;;;;;;2.17;1.87;;;;;;;12.91;79.46;95562.09;1769964;81;21060;-58
2021/08/08 00:08:30;;;;;;;3.35;2.40;;;;;;;12.89;79.71;95563.44;1770454;81;21060;-58
2021/08/08 00:10:57;;;;;;;2.55;1.98;;;;;;;12.95;79.61;95559.75;1770371;81;21068;-58
2021/08/08 00:13:24;;;;;;;3.27;1.80;;;;;;;12.86;80.39;95564.86;1770236;81;21040;-58
2021/08/08 00:15:51;;;;;;;1.98;1.77;;;;;;;12.82;80.04;95570.28;1770254;81;20982;-58
2021/08/08 00:18:18;;;;;;;2.57;1.70;;;;;;;12.73;80.08;95570.95;1770350;81;21012;-58
2021/08/08 00:20:45;;;;;;;3.95;2.02;;;;;;;12.73;80.36;95567.44;1770095;81;21024;-58
2021/08/08 00:23:11;;;;;;;3.20;1.70;;;;;;;12.73;80.01;95564.80;1770404;81;21554;-59
2021/08/08 00:25:38;;;;;;;3.30;1.90;;;;;;;12.72;80.31;95567.02;1770444;81;21037;-58
2021/08/08 00:28:06;;;;;;;2.65;2.00;;;;;;;12.71;79.79;95566.61;1770026;81;21063;-59
2021/08/08 00:30:34;;;;;;;2.37;2.10;;;;;;;12.75;79.83;95558.98;1770110;81;21502;-59
2021/08/08 00:33:00;;;;;;;2.10;1.90;;;;;;;12.70;79.71;95556.91;1770301;81;21064;-58
2021/08/08 00:35:42;;;;;;;1.90;1.62;;;;;;;12.66;80.06;95556.61;1769554;81;20977;-58
2021/08/08 00:38:06;;;;;;;4.33;2.17;;;;;;;12.63;80.26;95566.82;1770129;81;21075;-58
2021/08/08 00:40:33;;;;;;;2.58;2.02;;;;;;;12.64;80.73;95571.66;1770198;81;21494;-58
2021/08/08 00:42:59;;;;;;;2.20;2.00;;;;;;;12.63;80.28;95575.22;1770183;81;21021;-58
2021/08/08 00:45:26;;;;;;;4.75;1.80;;;;;;;12.59;79.99;95576.20;1770096;81;21810;-58
2021/08/08 00:47:58;;;;;;;2.10;1.90;;;;;;;12.42;79.83;95584.11;1769286;81;21025;-58
2021/08/08 00:50:26;;;;;;;2.03;1.83;;;;;;;12.29;80.46;95576.09;1770287;81;21015;-58
2021/08/08 00:52:53;;;;;;;2.95;2.10;;;;;;;12.31;80.94;95580.89;1770324;81;20982;-58
2021/08/08 00:55:22;;;;;;;3.17;1.77;;;;;;;12.34;80.08;95576.38;1770206;81;21796;-58
2021/08/08 00:57:50;;;;;;;1.93;1.70;;;;;;;12.36;80.18;95580.32;1770085;81;20993;-58
2021/08/08 01:00:17;;;;;;;2.30;1.80;;;;;;;12.27;79.91;95582.76;1770180;81;21029;-58
2021/08/08 01:02:49;;;;;;;4.63;2.13;;;;;;;12.18;81.27;95586.09;1740140;81;21013;-58
2021/08/08 01:05:21;;;;;;;;;;;;;;;12.15;80.49;95584.84;1772983;81;21502;-58
2021/08/08 01:08:08;;;;;;;2.10;1.90;;;;;;;12.06;80.98;95584.60;1770364;81;20098;-58
2021/08/08 01:10:37;;;;;;;3.43;2.00;;;;;;;12.00;81.40;95584.31;1767838;81;21523;-58
2021/08/08 01:13:08;;;;;;;2.40;1.50;;;;;;;11.98;81.50;95572.89;1770421;81;21056;-58
2021/08/08 01:15:36;;;;;;;1.87;1.70;;;;;;;12.03;80.97;95576.75;1770236;81;21032;-58
2021/08/08 01:18:03;;;;;;;2.43;1.63;;;;;;;12.01;81.23;95577.23;1770101;81;20982;-58
2021/08/08 01:20:31;;;;;;;3.60;1.80;;;;;;;11.96;81.49;95576.48;1770353;81;20950;-58
2021/08/08 01:23:02;;;;;;;3.37;1.90;;;;;;;11.94;81.19;95576.97;1770350;81;21037;-58
2021/08/08 01:25:31;;;;;;;3.17;1.90;;;;;;;11.88;81.56;95580.17;1770302;81;21447;-58
2021/08/08 01:28:00;;;;;;;2.47;1.90;;;;;;;11.93;81.60;95582.71;1770299;81;21467;-58
2021/08/08 01:30:28;;;;;;;4.40;2.23;;;;;;;11.97;81.37;95580.42;1760429;81;21029;-58
2021/08/08 01:33:07;;;;;;;3.63;1.97;;;;;;;11.97;80.99;95586.14;1757634;81;21077;-58
2021/08/08 01:35:36;;;;;;;2.73;1.80;;;;;;;11.95;80.69;95586.20;1757651;82;20966;-58
2021/08/08 01:38:03;;;;;;;1.80;1.53;;;;;;;11.91;80.19;95591.98;1757648;81;21484;-58
2021/08/08 01:40:41;;;;;;;1.77;1.40;;;;;;;11.89;80.97;95586.33;1758039;82;21479;-58
2021/08/08 01:43:12;;;;;;;2.63;1.40;;;;;;;11.92;80.76;95595.53;1757135;82;21021;-58
2021/08/08 01:45:43;;;;;;;1.83;1.60;;;;;;;11.85;80.53;95593.44;1757757;81;21490;-58
2021/08/08 01:48:12;;;;;;;2.63;1.80;;;;;;;11.80;80.53;95598.42;1758001;81;21020;-58
2021/08/08 01:50:39;;;;;;;2.17;1.60;;;;;;;11.85;80.58;95596.08;1757926;82;20950;-58
2021/08/08 01:53:08;;;;;;;1.90;1.63;;;;;;;11.94;81.28;95584.44;1757620;81;21030;-58
2021/08/08 01:55:35;;;;;;;1.70;1.60;;;;;;;11.94;80.57;95589.73;1757898;82;20973;-58
2021/08/08 01:58:05;;;;;;;2.13;1.70;;;;;;;11.93;80.57;95590.64;1757504;81;21089;-58
2021/08/08 02:00:32;;;;;;;2.27;1.73;;;;;;;11.83;80.92;95588.63;1757798;82;21041;-59
2021/08/08 02:03:02;;;;;;;4.30;2.23;;;;;;;11.79;81.09;95584.34;1757443;82;21145;-58
2021/08/08 02:05:31;;;;;;;3.10;2.23;;;;;;;11.76;81.86;95595.42;1757283;82;21325;-58
2021/08/08 02:07:59;;;;;;;3.17;2.07;;;;;;;11.74;81.51;95587.52;1732524;82;21002;-58
2021/08/08 02:10:27;;;;;;;2.07;1.70;;;;;;;11.76;81.18;95586.17;1732586;82;21012;-58
2021/08/08 02:12:54;;;;;;;2.30;2.10;;;;;;;11.77;80.94;95592.76;1757763;81;21053;-58
2021/08/08 02:15:20;;;;;;;3.70;1.47;;;;;;;11.66;81.35;95598.27;1757998;82;21443;-58
2021/08/08 02:17:49;;;;;;;1.67;1.50;;;;;;;11.60;81.63;95605.48;1757189;82;21539;-58
2021/08/08 02:20:17;;;;;;;2.13;1.67;;;;;;;11.51;81.88;95593.78;1757697;82;21077;-58
2021/08/08 02:22:48;;;;;;;2.57;1.50;;;;;;;11.47;82.00;95596.96;1757932;82;21113;-58
2021/08/08 02:25:16;;;;;;;3.93;2.40;;;;;;;11.43;82.21;95601.42;1732712;82;20981;-58
2021/08/08 02:27:44;;;;;;;3.47;1.80;;;;;;;11.43;82.11;95611.13;1757807;82;20992;-58
2021/08/08 02:30:12;;;;;;;3.93;1.80;;;;;;;11.48;82.62;95608.80;1756184;81;21073;-58
2021/08/08 02:32:39;;;;;;;1.73;1.63;;;;;;;11.47;82.46;95610.17;1757851;82;21036;-58
2021/08/08 02:35:07;;;;;;;2.10;1.73;;;;;;;11.49;82.85;95604.41;1757527;81;21031;-58
2021/08/08 02:37:35;;;;;;;1.90;1.60;;;;;;;11.50;82.43;95614.52;1758103;82;20985;-58
2021/08/08 02:40:02;;;;;;;2.67;1.70;;;;;;;11.53;82.58;95608.70;1757930;82;21065;-58
2021/08/08 02:42:28;;;;;;;2.73;1.90;;;;;;;11.56;82.70;95613.05;1757667;81;21507;-58
2021/08/08 02:44:55;;;;;;;2.37;1.73;;;;;;;11.60;82.35;95613.41;1757851;82;21017;-58
2021/08/08 02:47:22;;;;;;;2.07;1.87;;;;;;;11.59;82.06;95611.23;1757600;82;21062;-58
2021/08/08 02:49:49;;;;;;;2.13;1.70;;;;;;;11.61;81.95;95616.00;1758052;82;21585;-58
2021/08/08 02:52:16;;;;;;;2.50;1.50;;;;;;;11.58;81.51;95609.47;1758014;81;21037;-58
2021/08/08 02:54:42;;;;;;;1.93;1.80;;;;;;;11.62;81.67;95608.51;1732444;82;21017;-58
2021/08/08 02:57:09;;;;;;;2.60;1.83;;;;;;;11.62;81.42;95611.16;1757876;82;20989;-57
2021/08/08 02:59:36;;;;;;;2.10;1.50;;;;;;;11.56;81.78;95610.41;1757555;82;21116;-58
2021/08/08 03:02:04;;;;;;;1.40;1.30;;;;;;;11.50;82.14;95611.42;1757640;82;20989;-58
2021/08/08 03:04:31;;;;;;;1.67;1.57;;;;;;;11.49;82.26;95611.02;1757854;82;21005;-58
2021/08/08 03:06:58;;;;;;;2.97;1.53;;;;;;;11.44;81.86;95612.86;1757865;81;21025;-58
2021/08/08 03:09:25;;;;;;;2.53;1.80;;;;;;;11.46;82.35;95615.02;1758050;81;21013;-58
2021/08/08 03:11:52;;;;;;;3.63;1.90;;;;;;;11.43;82.58;95625.20;1758114;82;20992;-58
2021/08/08 03:14:20;;;;;;;3.13;1.67;;;;;;;11.47;82.31;95626.89;1757862;82;21049;-58
2021/08/08 03:16:48;;;;;;;2.13;1.80;;;;;;;11.41;82.61;95632.28;1757638;82;21120;-58
2021/08/08 03:19:16;;;;;;;1.70;1.60;;;;;;;11.37;82.86;95630.63;1757930;81;21535;-58
2021/08/08 03:21:44;;;;;;;4.97;1.60;;;;;;;11.43;82.33;95625.20;1757933;81;21491;-58
2021/08/08 03:24:11;;;;;;;3.50;1.70;;;;;;;11.48;82.29;95626.43;1757619;81;21012;-58
2021/08/08 03:26:38;;;;;;;1.57;1.47;;;;;;;11.51;82.02;95625.03;1758065;82;21032;-58
2021/08/08 03:29:05;;;;;;;2.37;1.67;;;;;;;11.47;81.83;95626.03;1757983;82;21057;-58
2021/08/08 03:31:32;;;;;;;2.17;1.97;;;;;;;11.46;82.20;95624.27;1757714;81;21010;-58
2021/08/08 03:33:59;;;;;;;2.40;2.17;;;;;;;11.48;82.50;95636.55;1758007;82;20982;-58
2021/08/08 03:36:27;;;;;;;2.13;1.80;;;;;;;11.49;82.29;95628.19;1757936;81;20994;-58
2021/08/08 03:38:54;;;;;;;2.13;1.80;;;;;;;11.54;81.95;95634.24;1758266;81;20982;-58
2021/08/08 03:41:21;;;;;;;1.63;1.40;;;;;;;11.51;81.43;95628.14;1758125;81;21041;-58
2021/08/08 03:43:48;;;;;;;1.90;1.70;;;;;;;11.42;81.89;95632.72;1758020;82;21036;-58
2021/08/08 03:46:15;;;;;;;5.27;1.90;;;;;;;11.40;82.25;95637.16;1757921;82;20981;-59
2021/08/08 03:48:42;;;;;;;3.53;2.10;;;;;;;11.38;82.28;95636.32;1758081;82;21074;-58
2021/08/08 03:51:11;;;;;;;2.33;2.00;;;;;;;11.40;82.08;95637.16;1757886;82;20993;-57
2021/08/08 03:53:38;;;;;;;2.10;1.80;;;;;;;11.42;82.15;95642.43;1757986;82;20994;-58
2021/08/08 03:56:05;;;;;;;4.50;1.83;;;;;;;11.41;81.89;95649.91;1758028;81;20998;-58
2021/08/08 03:58:33;;;;;;;3.60;2.00;;;;;;;11.42;82.18;95651.22;1757743;82;21615;-58
2021/08/08 04:01:03;;;;;;;4.60;1.60;;;;;;;11.51;82.84;95654.56;1758130;82;21073;-58
2021/08/08 04:03:31;;;;;;;2.37;1.90;;;;;;;11.55;83.02;95659.75;1757826;82;21029;-58
2021/08/08 04:05:58;;;;;;;1.80;1.60;;;;;;;11.66;82.85;95655.55;1757920;81;21041;-58
2021/08/08 04:08:25;;;;;;;5.20;1.50;;;;;;;11.78;82.27;95657.06;1757680;82;21511;-58
2021/08/08 04:10:54;;;;;;;2.37;1.87;;;;;;;11.88;81.83;95656.84;1758063;82;21484;-58
2021/08/08 04:13:21;;;;;;;4.13;1.90;;;;;;;12.04;81.93;95656.49;1757949;81;21018;-58
2021/08/08 04:15:48;;;;;;;6.13;1.70;;;;;;;12.11;81.45;95652.80;1757903;81;21014;-58
2021/08/08 04:18:15;;;;;;;1.93;1.50;;;;;;;12.23;81.37;95643.72;1757825;82;21017;-58
2021/08/08 04:20:41;;;;;;;1.70;1.60;;;;;;;12.34;79.84;95645.17;1757870;82;20977;-58
2021/08/08 04:23:12;;;;;;;1.80;1.57;;;;;;;12.41;80.02;95649.87;1758002;82;21077;-58
2021/08/08 04:25:39;;;;;;;1.60;1.50;;;;;;;12.42;78.19;95644.98;1757771;81;21076;-58
2021/08/08 04:28:08;;;;;;;2.02;1.50;;;;;;;12.55;79.21;95646.89;1758047;82;21052;-58
2021/08/08 04:30:36;;;;;;;1.75;1.50;;;;;;;12.74;79.22;95647.27;1757633;81;21072;-58
2021/08/08 04:33:04;;;;;;;1.70;1.60;;;;;;;12.86;78.98;95639.00;1732509;82;21006;-58
2021/08/08 04:35:32;;;;;;;2.08;1.65;;;;;;;13.00;76.95;95642.59;1758013;81;21519;-58
2021/08/08 04:38:01;;;;;;;3.90;1.80;;;;;;;13.08;77.64;95636.66;1758034;82;20973;-58
2021/08/08 04:40:29;;;;;;;2.00;1.50;;;;;;;13.19;77.64;95638.98;1757956;82;21061;-58
2021/08/08 04:42:57;;;;;;;1.87;1.62;;;;;;;13.25;77.46;95638.80;1757916;82;21049;-58
2021/08/08 04:45:24;;;;;;;1.40;1.30;;;;;;;13.33;77.73;95634.21;1757708;81;21025;-58
2021/08/08 04:47:52;;;;;;;1.80;1.50;;;;;;;13.41;77.47;95632.20;1757616;81;21045;-58
2021/08/08 04:50:21;;;;;;;2.05;1.70;;;;;;;13.47;76.98;95627.63;1757915;82;21021;-59
2021/08/08 05:05:31;;;;;;;3.25;1.70;;;;;;;14.94;73.54;95628.22;1836659;77;22989;-59
2021/08/08 05:07:59;;;;;;;1.37;1.27;;;;;;;14.87;74.24;95622.73;1810620;78;21041;-59
2021/08/08 05:10:26;;;;;;;1.50;1.40;;;;;;;14.90;73.69;95629.27;1803812;78;21070;-59
2021/08/08 05:12:55;;;;;;;2.87;1.42;;;;;;;14.99;73.11;95629.39;1808332;78;21065;-59
2021/08/08 05:15:24;;;;;;;1.98;1.47;;;;;;;15.05;72.79;95633.17;1808201;78;21121;-59
2021/08/08 05:17:51;;;;;;;3.22;1.37;;;;;;;15.08;72.72;95629.94;1816437;78;21010;-59
2021/08/08 05:20:17;;;;;;;3.62;1.25;;;;;;;15.11;73.67;95631.15;1798952;78;20994;-59
2021/08/08 05:22:44;;;;;;;1.47;1.37;;;;;;;15.15;73.11;95630.59;1802426;78;21507;-59
2021/08/08 05:25:12;;;;;;;4.22;1.57;;;;;;;15.24;73.01;95637.35;1808168;78;21551;-60
2021/08/08 05:27:39;;;;;;;2.35;1.35;;;;;;;15.34;73.57;95642.27;1818879;78;20982;-59
2021/08/08 05:30:10;;;;;;;1.15;1.00;;;;;;;15.45;73.44;95641.91;1810223;78;21050;-59
2021/08/08 05:32:37;;;;;;;1.45;1.20;;;;;;;15.56;72.10;95646.34;1812118;78;21120;-59
2021/08/08 05:35:06;;;;;;;1.32;1.20;;;;;;;15.67;71.68;95640.61;1816977;78;21053;-59
2021/08/08 05:37:33;;;;;;;2.92;1.50;;;;;;;15.81;71.92;95642.80;1811564;78;21507;-59
2021/08/08 05:40:04;;;;;;;7.05;2.00;;;;;;;15.96;72.02;95639.55;1809437;78;21007;-59
2021/08/08 05:42:28;;;;;;;2.12;1.72;;;;;;;16.11;71.78;95630.09;1777089;78;21009;-59
2021/08/08 05:44:55;;;;;;;1.92;1.75;;;;;;;16.31;71.57;95635.09;1806476;78;21052;-59
2021/08/08 05:47:21;;;;;;;2.65;1.80;;;;;;;16.50;71.89;95634.72;1813029;78;21037;-59
2021/08/08 05:49:48;;;;;;;2.10;1.60;;;;;;;16.64;72.65;95632.36;1823289;78;21566;-59
2021/08/08 05:52:14;;;;;;;1.98;1.55;;;;;;;16.84;72.26;95638.69;1809445;78;21002;-60
2021/08/08 05:54:41;;;;;;;2.95;1.70;;;;;;;17.06;72.12;95645.31;1802779;78;21054;-59
2021/08/08 05:57:07;;;;;;;2.35;1.32;;;;;;;17.28;71.92;95647.88;1803406;78;21011;-58
2021/08/08 05:59:34;;;;;;;2.00;1.45;;;;;;;17.45;71.55;95637.33;1808311;78;21493;-59
2021/08/08 06:02:01;;;;;;;4.83;1.60;;;;;;;17.63;69.49;95638.77;1821795;78;21054;-59
2021/08/08 06:04:28;;;;;;;2.30;1.50;;;;;;;17.80;70.52;95643.38;1814652;78;21029;-59
2021/08/08 06:06:55;;;;;;;1.67;1.25;;;;;;;17.97;69.36;95644.80;1811992;78;21022;-59
2021/08/08 06:09:21;;;;;;;8.73;3.87;;;;;;;18.14;69.96;95639.53;1810254;78;21041;-59
2021/08/08 06:11:48;;;;;;;10.30;5.40;;;;;;;18.33;69.04;95636.83;1810321;78;21073;-58
2021/08/08 06:14:15;;;;;;;11.63;6.92;;;;;;;18.53;68.22;95633.66;1809989;78;21030;-59
2021/08/08 06:16:41;;;;;;;4.62;3.50;;;;;;;18.70;68.49;95639.03;1811999;78;21017;-59
2021/08/08 06:19:08;;;;;;;4.17;2.00;;;;;;;18.87;67.86;95638.20;1805721;78;21009;-60
2021/08/08 06:21:34;;;;;;;2.95;2.60;;;;;;;19.02;67.55;95639.23;1801502;78;21041;-59
2021/08/08 06:24:01;;;;;;;4.83;3.08;;;;;;;19.09;66.24;95626.42;1814072;78;21030;-59
2021/08/08 06:26:29;;;;;;;4.53;2.95;;;;;;;19.25;65.16;95639.38;1814121;78;21005;-59
2021/08/08 06:28:56;;;;;;;7.30;4.58;;;;;;;19.34;64.21;95635.38;1810268;78;21041;-59
2021/08/08 06:31:23;;;;;;;7.53;4.28;;;;;;;19.39;64.32;95639.53;1815086;78;21023;-59
2021/08/08 06:33:50;;;;;;;4.20;2.45;;;;;;;19.50;64.42;95633.60;1802183;78;21077;-59
2021/08/08 06:36:17;;;;;;;2.77;2.20;;;;;;;19.63;64.35;95633.81;1808184;78;21014;-59
2021/08/08 06:38:43;;;;;;;3.22;2.02;;;;;;;19.73;64.30;95621.72;1818856;78;21038;-59
2021/08/08 06:41:10;;;;;;;2.58;2.00;;;;;;;19.86;64.31;95627.27;1804324;78;21068;-61
2021/08/08 06:43:37;;;;;;;2.55;2.17;;;;;;;19.97;64.64;95630.21;1807003;78;20997;-59
2021/08/08 06:46:05;;;;;;;2.90;2.30;;;;;;;20.13;64.57;95629.36;1818809;78;21022;-59
2021/08/08 06:48:34;;;;;;;2.62;2.20;;;;;;;20.25;64.87;95631.36;1811985;78;21064;-59
2021/08/08 06:51:03;;;;;;;2.27;2.02;;;;;;;20.36;64.79;95626.72;1802566;78;21005;-58
2021/08/08 06:53:30;;;;;;;3.25;2.77;;;;;;;20.50;65.07;95626.81;1779161;79;21029;-59
2021/08/08 06:55:59;;;;;;;3.47;2.27;;;;;;;20.59;65.48;95618.28;1803484;78;20970;-58
2021/08/08 06:58:26;;;;;;;3.22;2.40;;;;;;;20.63;64.42;95625.17;1802675;78;21041;-59
2021/08/08 07:00:53;;;;;;;3.00;2.42;;;;;;;20.73;64.46;95628.19;1814964;78;21049;-58
2021/08/08 07:03:19;;;;;;;3.05;2.30;;;;;;;20.80;64.23;95629.56;1810069;78;21078;-58
2021/08/08 07:05:46;;;;;;;2.30;2.08;;;;;;;20.90;64.21;95639.28;1808304;78;21013;-59
2021/08/08 07:08:13;;;;;;;2.47;2.27;;;;;;;21.03;63.95;95642.97;1808296;78;21029;-59
2021/08/08 07:10:40;;;;;;;2.45;2.25;;;;;;;21.10;63.05;95642.13;1802159;78;21037;-59
2021/08/08 07:13:06;;;;;;;3.00;1.95;;;;;;;21.18;63.45;95643.88;1813753;78;21002;-59
2021/08/08 07:15:33;;;;;;;2.20;2.00;;;;;;;21.23;61.84;95644.95;1813748;78;21020;-59
2021/08/08 07:18:00;;;;;;;2.95;2.17;;;;;;;21.31;61.40;95650.71;1801671;79;21064;-59
2021/08/08 07:20:27;;;;;;;2.35;2.15;;;;;;;;;;1815726;78;21025;-59
2021/08/08 07:22:54;;;;;;;2.40;2.20;;;;;;;21.50;60.62;95654.05;1801814;78;21048;-59
2021/08/08 07:25:21;;;;;;;2.08;1.87;;;;;;;21.61;61.82;95652.91;1806862;78;20983;-59
2021/08/08 07:27:47;;;;;;;3.65;2.05;;;;;;;21.76;61.79;95652.92;1785632;80;21016;-59
2021/08/08 07:30:14;;;;;;;2.75;2.22;;;;;;;21.92;60.97;95661.74;1775287;80;21014;-60
2021/08/08 07:32:41;;;;;;;3.35;2.05;;;;;;;22.03;60.87;95658.41;1763790;80;21372;-60
2021/08/08 07:35:09;;;;;;;2.37;2.17;;;;;;;22.18;60.90;95656.58;1788682;80;21118;-59
2021/08/08 07:37:36;;;;;;;2.40;2.20;;;;;;;22.29;60.07;95654.58;1788019;80;21042;-59
2021/08/08 07:40:05;;;;;;;2.65;2.25;;;;;;;22.35;58.92;95654.17;1765551;80;21018;-59
2021/08/08 07:42:32;;;;;;;2.15;1.95;;;;;;;22.40;58.57;95662.80;1739298;80;21492;-60
2021/08/08 07:44:59;;;;;;;3.47;2.27;;;;;;;22.52;59.49;95661.16;1768192;80;21018;-59
2021/08/08 07:47:26;;;;;;;2.20;2.00;;;;;;;22.62;58.96;95654.21;1780136;80;21069;-59
2021/08/08 07:49:52;;;;;;;2.60;2.40;;;;;;;22.79;59.03;95655.31;1783622;80;21098;-59
2021/08/08 07:52:19;;;;;;;2.22;2.02;;;;;;;22.93;58.13;95653.53;1788578;80;21023;-60
2021/08/08 07:54:47;;;;;;;2.95;2.20;;;;;;;23.05;58.35;95659.47;1773439;80;21002;-59
2021/08/08 07:57:14;;;;;;;3.83;2.42;;;;;;;23.17;58.20;95657.80;1783557;80;21022;-59
2021/08/08 07:59:41;;;;;;;2.60;2.40;;;;;;;23.28;57.86;95661.95;1761983;80;21044;-59
2021/08/08 08:02:08;;;;;;;2.52;2.33;;;;;;;23.35;56.60;95661.06;1762700;80;21045;-59
2021/08/08 08:04:35;;;;;;;2.12;2.02;;;;;;;23.44;57.66;95653.72;1782051;80;20971;-59
2021/08/08 08:07:01;;;;;;;1.95;1.85;;;;;;;23.57;56.88;95659.97;1737199;80;21618;-59
2021/08/08 08:09:28;;;;;;;2.58;1.77;;;;;;;23.68;56.37;95652.48;1766213;80;21023;-59
2021/08/08 08:11:54;;;;;;;5.20;2.22;;;;;;;23.73;55.39;95653.92;1788905;80;21034;-60
2021/08/08 08:14:21;;;;;;;2.92;1.98;;;;;;;23.88;55.76;95655.17;1774722;80;21026;-60
2021/08/08 08:16:48;;;;;;;2.20;2.00;;;;;;;24.00;55.08;95654.30;1763251;80;21014;-60
2021/08/08 08:19:15;;;;;;;2.15;2.02;;;;;;;24.09;55.17;95652.77;1768758;80;21016;-60
2021/08/08 08:21:42;;;;;;;2.50;2.30;;;;;;;24.19;54.89;95655.19;1790180;80;20999;-59
2021/08/08 08:24:08;;;;;;;2.85;2.25;;;;;;;24.24;53.13;95648.13;1787442;80;21566;-60
2021/08/08 08:26:35;;;;;;;2.42;2.00;;;;;;;24.30;51.61;95654.44;1742528;79;21014;-59
2021/08/08 08:29:02;;;;;;;2.40;2.20;;;;;;;24.40;53.21;95656.35;1765512;80;21373;-59
2021/08/08 08:31:28;;;;;;;2.05;1.92;;;;;;;24.55;52.98;95654.41;1788179;80;20983;-59
2021/08/08 08:33:55;;;;;;;2.10;1.87;;;;;;;24.59;52.62;95654.57;1768741;80;21033;-59
2021/08/08 08:36:22;;;;;;;3.30;2.10;;;;;;;24.73;51.89;95663.48;1776927;80;21094;-60
2021/08/08 08:38:49;;;;;;;3.75;2.12;;;;;;;24.79;51.73;95662.52;1771027;80;21046;-60
2021/08/08 08:41:16;;;;;;;2.25;2.05;;;;;;;24.82;52.04;95650.17;1766831;80;21067;-59
2021/08/08 08:43:45;;;;;;;2.37;2.12;;;;;;;24.89;50.58;95655.95;1787353;80;21012;-60
2021/08/08 08:46:14;;;;;;;2.77;1.72;;;;;;;25.00;51.58;95651.98;1743887;80;21085;-59
2021/08/08 08:48:44;;;;;;;2.75;1.82;;;;;;;25.15;51.64;95653.12;1783154;80;21522;-59
2021/08/08 08:51:15;;;;;;;2.83;2.00;;;;;;;25.17;51.10;95652.06;1776289;80;20994;-59
2021/08/08 08:53:45;;;;;;;2.87;1.85;;;;;;;25.38;52.80;95656.34;1763746;80;21054;-60
2021/08/08 08:56:14;;;;;;;1.98;1.80;;;;;;;25.48;50.69;95658.71;1785183;80;21090;-59
2021/08/08 08:58:41;;;;;;;3.02;1.92;;;;;;;25.62;52.18;95654.93;1776035;80;21017;-60
2021/08/08 09:01:08;;;;;;;2.00;1.90;;;;;;;25.82;51.20;95653.38;1780798;80;20991;-60
2021/08/08 09:03:34;;;;;;;3.80;2.08;;;;;;;25.98;51.98;95660.31;1762363;80;21022;-59
2021/08/08 09:06:04;;;;;;;1.82;1.72;;;;;;;26.11;51.02;95661.94;1778272;80;21015;-59
2021/08/08 09:08:31;;;;;;;2.05;1.87;;;;;;;26.23;50.64;95661.94;1779291;80;21038;-61
2021/08/08 09:11:09;;;;;;;2.17;1.98;;;;;;;26.33;50.58;95654.80;1785247;80;21015;-60
2021/08/08 09:13:54;;;;;;;2.05;1.95;;;;;;;26.46;50.13;95660.97;1782989;80;21492;-59
2021/08/08 09:16:27;;;;;;;3.80;2.10;;;;;;;26.54;47.63;95653.11;1787441;80;21042;-59
2021/08/08 09:18:57;;;;;;;1.95;1.85;;;;;;;26.74;48.35;95662.31;1781494;80;21015;-60
2021/08/08 09:21:26;;;;;;;2.40;2.20;;;;;;;26.87;48.08;95658.60;1761024;80;21114;-59
2021/08/08 09:23:56;;;;;;;2.42;1.90;;;;;;;26.96;49.02;95657.35;1762452;80;21547;-59
2021/08/08 09:26:37;;;;;;;2.00;1.90;;;;;;;27.11;48.28;95659.25;1737588;80;20982;-60
2021/08/08 09:29:14;;;;;;;5.42;2.27;;;;;;;27.21;47.26;95655.81;1739229;81;21013;-60
2021/08/08 09:31:50;;;;;;;1.80;1.70;;;;;;;27.34;46.52;95656.02;1766329;80;21552;-60
2021/08/08 09:34:27;;;;;;;1.82;1.70;;;;;;;27.42;47.14;95660.80;1762340;80;21014;-60
2021/08/08 09:37:00;;;;;;;2.30;2.10;;;;;;;27.53;46.66;95662.08;1769562;80;21089;-60
2021/08/08 09:39:36;;;;;;;1.70;1.60;;;;;;;27.71;47.03;95660.14;1786182;80;21499;-60
2021/08/08 09:42:24;;;;;;;3.60;1.90;;;;;;;27.86;47.08;95660.20;1787883;80;21046;-60
2021/08/08 09:45:06;;;;;;;1.75;1.65;;;;;;;28.00;44.86;95659.02;1776655;80;21014;-60
2021/08/08 09:47:42;;;;;;;2.07;1.87;;;;;;;28.10;44.29;95654.98;1786506;80;21018;-60
2021/08/08 09:50:16;;;;;;;1.90;1.80;;;;;;;28.17;43.30;95652.10;1782124;80;21050;-60
2021/08/08 09:52:55;;;;;;;1.87;1.77;;;;;;;28.23;44.88;95659.21;1765668;80;21082;-60
2021/08/08 09:55:37;;;;;;;1.60;1.50;;;;;;;28.36;44.14;95645.42;1774980;80;21121;-60
2021/08/08 09:58:08;;;;;;;1.67;1.57;;;;;;;28.34;41.32;95646.05;1778474;80;21018;-59
2021/08/08 10:00:38;;;;;;;1.92;1.60;;;;;;;28.47;42.69;95655.34;1780451;80;21494;-60
2021/08/08 10:03:08;;;;;;;3.10;1.60;;;;;;;28.53;42.84;95654.81;1762809;80;21562;-59
2021/08/08 10:05:40;;;;;;;1.90;1.80;;;;;;;28.62;41.04;95658.55;1773066;80;21017;-59
2021/08/08 10:08:12;;;;;;;;;;;;;;;28.73;42.12;95660.28;1774569;80;21029;-60
2021/08/08 10:10:42;;;;;;;1.60;1.50;;;;;;;28.76;40.71;95656.81;1762069;80;20385;-60
2021/08/08 10:13:35;;;;;;;1.50;1.40;;;;;;;28.77;41.61;95657.16;1715264;81;20987;-60
2021/08/08 10:16:09;;;;;;;1.60;1.50;;;;;;;28.92;40.82;95654.91;1740943;81;21069;-61
2021/08/08 10:18:41;;;;;;;2.00;1.70;;;;;;;29.07;41.79;95657.63;1771867;80;21003;-59
2021/08/08 10:21:10;;;;;;;1.60;1.50;;;;;;;29.25;41.05;95652.34;1771979;80;21379;-60
2021/08/08 10:23:38;;;;;;;1.45;1.35;;;;;;;29.34;41.18;95651.51;1781508;80;21046;-60
2021/08/08 10:26:06;;;;;;;1.50;1.40;;;;;;;29.49;40.42;95656.53;1777876;80;21010;-61
2021/08/08 10:28:33;;;;;;;2.47;1.42;;;;;;;29.61;38.75;95655.86;1761968;80;21022;-60
2021/08/08 10:31:03;;;;;;;2.83;1.80;;;;;;;29.66;38.71;95647.69;1764001;80;21014;-60
2021/08/08 10:33:30;;;;;;;1.47;1.37;;;;;;;29.78;39.67;95652.95;1762295;80;21010;-60
2021/08/08 10:35:56;;;;;;;2.62;1.75;;;;;;;29.89;39.70;95651.45;1786164;80;20991;-60
2021/08/08 10:38:23;;;;;;;1.60;1.45;;;;;;;30.02;38.89;95648.41;1781113;80;21137;-60
2021/08/08 10:40:50;;;;;;;1.87;1.62;;;;;;;30.18;39.20;95651.37;1766406;80;21046;-59
2021/08/08 10:43:33;;;;;;;3.58;1.90;;;;;;;30.27;39.88;95660.05;1789364;80;21061;-60
2021/08/08 10:46:11;;;;;;;1.87;1.72;;;;;;;30.33;39.89;95652.64;1760742;80;21041;-60
2021/08/08 10:48:43;;;;;;;2.15;1.67;;;;;;;30.30;40.14;95656.17;1762710;80;21062;-60
2021/08/08 10:51:17;;;;;;;;;;;;;;;30.35;41.17;95658.80;1768624;80;21022;-60
2021/08/08 10:53:44;;;;;;;1.82;1.70;;;;;;;30.40;41.88;95654.27;1767554;80;20088;-60
2021/08/08 10:56:13;;;;;;;8.05;1.90;;;;;;;30.43;40.26;95655.33;1744719;81;21018;-60
2021/08/08 10:58:41;;;;;;;3.72;1.50;;;;;;;30.53;40.51;95651.20;1783647;80;21578;-60
2021/08/08 11:01:21;;;;;;;1.72;1.62;;;;;;;30.63;39.44;95650.15;1775077;80;21885;-59
2021/08/08 11:04:00;;;;;;;2.37;1.75;;;;;;;30.65;37.70;95655.97;1770535;80;21058;-59
2021/08/08 11:06:34;;;;;;;2.47;1.75;;;;;;;30.70;38.68;95655.02;1771566;80;21051;-59
2021/08/08 11:09:01;;;;;;;1.80;1.63;;;;;;;30.86;39.09;95657.95;1785733;80;21497;-60
2021/08/08 11:11:32;;;;;;;1.70;1.60;;;;;;;30.99;39.79;95657.08;1763435;80;21483;-60
2021/08/08 11:14:15;;;;;;;3.75;1.80;;;;;;;31.06;38.33;95651.89;1772164;80;21057;-60
2021/08/08 11:16:45;;;;;;;2.45;1.75;;;;;;;31.13;38.55;95653.51;1732512;82;21072;-59
2021/08/08 11:19:13;;;;;;;1.90;1.70;;;;;;;31.13;39.44;95648.91;1749908;81;21380;-60
2021/08/08 11:21:40;;;;;;;2.42;1.77;;;;;;;31.18;38.46;95649.30;1751029;81;21100;-60
2021/08/08 11:24:11;;;;;;;2.08;1.90;;;;;;;31.20;37.91;95652.73;1752869;81;21061;-60
2021/08/08 11:26:39;;;;;;;2.65;1.65;;;;;;;31.17;37.01;95652.17;1752116;81;21064;-60
2021/08/08 11:29:07;;;;;;;2.85;1.90;;;;;;;31.21;38.15;95648.98;1756870;81;20994;-60
2021/08/08 11:31:37;;;;;;;2.00;1.90;;;;;;;31.31;35.87;95647.55;1746594;81;21100;-60
2021/08/08 11:34:08;;;;;;;2.45;2.00;;;;;;;31.27;37.24;95643.41;1747768;81;21021;-60
2021/08/08 11:36:40;;;;;;;2.00;1.80;;;;;;;31.26;38.15;95638.47;1745850;81;21025;-60
2021/08/08 11:39:12;;;;;;;2.22;1.80;;;;;;;31.45;39.84;95644.84;1765138;80;21544;-60
2021/08/08 11:41:41;;;;;;;4.60;2.30;;;;;;;31.71;37.60;95639.44;1777807;80;21042;-60
2021/08/08 11:44:14;;;;;;;2.55;2.05;;;;;;;31.85;38.19;95643.46;1747122;81;21042;-59
2021/08/08 11:46:52;;;;;;;4.35;1.98;;;;;;;32.02;36.39;95643.97;1787339;80;21546;-60
2021/08/08 11:49:22;;;;;;;2.45;2.20;;;;;;;32.12;35.54;95645.23;1773840;80;21026;-60
2021/08/08 11:51:59;;;;;;;4.33;1.70;;;;;;;32.37;33.66;95643.52;1762085;80;21097;-60
2021/08/08 11:54:28;;;;;;;2.77;1.90;;;;;;;32.67;34.25;95639.45;1786211;80;20983;-60